Terminal Aerodrome Forecast
Issued by NWS Topeka, KS

Home | Current Version | Previous Version | Text Only | Print | Product List | Glossary Off
Versions: 1 2 3 4 5 6 7 8 9 10 11 12 13 14 15 16 17

000
FTUS43 KTOP 261351 AAA
TAFTOP
TAF AMD
KTOP 261351Z 2614/2712 23008KT P6SM VCTS BKN080CB
      TEMPO 2614/2616 -TSRA BKN060CB
     FM261600 18009KT P6SM SCT080
     FM270000 18011KT P6SM -SHRA VCTS BKN080CB
     FM270700 VRB04KT P6SM BKN060=

USA.gov is the U.S. government's official web portal to all federal, state and local government web resources and services.